sensor_id;sensor_type;location;lat;lon;timestamp;P1;durP1;ratioP1;P2;durP2;ratioP2
18973;SDS011;9621;48.690;9.466;2022-07-29T00:00:38;8.75;;;7.82;;
18973;SDS011;9621;48.690;9.466;2022-07-29T00:03:05;9.75;;;7.35;;
18973;SDS011;9621;48.690;9.466;2022-07-29T00:05:34;8.20;;;7.40;;
18973;SDS011;9621;48.690;9.466;2022-07-29T00:08:01;8.15;;;7.32;;
18973;SDS011;9621;48.690;9.466;2022-07-29T00:10:28;10.85;;;7.80;;
18973;SDS011;9621;48.690;9.466;2022-07-29T00:12:55;9.10;;;8.20;;
18973;SDS011;9621;48.690;9.466;2022-07-29T00:15:22;9.10;;;7.30;;
18973;SDS011;9621;48.690;9.466;2022-07-29T00:17:49;9.38;;;7.68;;
18973;SDS011;9621;48.690;9.466;2022-07-29T00:20:16;9.80;;;7.45;;
18973;SDS011;9621;48.690;9.466;2022-07-29T00:22:45;8.55;;;7.65;;
18973;SDS011;9621;48.690;9.466;2022-07-29T00:25:12;10.18;;;7.63;;
18973;SDS011;9621;48.690;9.466;2022-07-29T00:27:39;8.45;;;7.53;;
18973;SDS011;9621;48.690;9.466;2022-07-29T00:30:06;8.88;;;7.53;;
18973;SDS011;9621;48.690;9.466;2022-07-29T00:32:34;8.20;;;7.43;;
18973;SDS011;9621;48.690;9.466;2022-07-29T00:35:01;8.48;;;7.68;;
18973;SDS011;9621;48.690;9.466;2022-07-29T00:37:49;8.82;;;7.93;;
18973;SDS011;9621;48.690;9.466;2022-07-29T00:40:16;10.43;;;7.88;;
18973;SDS011;9621;48.690;9.466;2022-07-29T00:42:43;8.75;;;7.88;;
18973;SDS011;9621;48.690;9.466;2022-07-29T00:45:10;9.10;;;7.55;;
18973;SDS011;9621;48.690;9.466;2022-07-29T00:47:38;9.48;;;8.23;;
18973;SDS011;9621;48.690;9.466;2022-07-29T00:50:06;9.73;;;7.95;;
18973;SDS011;9621;48.690;9.466;2022-07-29T00:52:35;8.88;;;7.97;;
18973;SDS011;9621;48.690;9.466;2022-07-29T00:55:06;8.73;;;7.82;;
18973;SDS011;9621;48.690;9.466;2022-07-29T00:57:34;9.27;;;7.53;;
18973;SDS011;9621;48.690;9.466;2022-07-29T01:00:03;15.38;;;8.60;;
18973;SDS011;9621;48.690;9.466;2022-07-29T01:02:31;10.65;;;8.38;;
18973;SDS011;9621;48.690;9.466;2022-07-29T01:04:58;9.80;;;8.15;;
18973;SDS011;9621;48.690;9.466;2022-07-29T01:07:25;8.98;;;8.07;;
18973;SDS011;9621;48.690;9.466;2022-07-29T01:09:53;9.65;;;8.65;;
18973;SDS011;9621;48.690;9.466;2022-07-29T01:12:23;9.80;;;8.45;;
18973;SDS011;9621;48.690;9.466;2022-07-29T01:14:52;10.77;;;7.82;;
18973;SDS011;9621;48.690;9.466;2022-07-29T01:17:21;9.48;;;8.40;;
18973;SDS011;9621;48.690;9.466;2022-07-29T01:19:56;9.13;;;8.23;;
18973;SDS011;9621;48.690;9.466;2022-07-29T01:22:29;9.02;;;8.20;;
18973;SDS011;9621;48.690;9.466;2022-07-29T01:25:05;11.35;;;8.40;;
18973;SDS011;9621;48.690;9.466;2022-07-29T01:27:47;9.63;;;8.63;;
18973;SDS011;9621;48.690;9.466;2022-07-29T01:30:29;9.88;;;8.40;;
18973;SDS011;9621;48.690;9.466;2022-07-29T01:32:59;9.60;;;8.60;;
18973;SDS011;9621;48.690;9.466;2022-07-29T01:35:31;10.00;;;8.50;;
18973;SDS011;9621;48.690;9.466;2022-07-29T01:38:05;9.73;;;8.80;;
18973;SDS011;9621;48.690;9.466;2022-07-29T01:40:35;9.48;;;8.57;;
18973;SDS011;9621;48.690;9.466;2022-07-29T01:43:09;9.75;;;8.82;;
18973;SDS011;9621;48.690;9.466;2022-07-29T01:45:40;9.40;;;8.48;;
18973;SDS011;9621;48.690;9.466;2022-07-29T01:48:10;10.20;;;9.00;;
18973;SDS011;9621;48.690;9.466;2022-07-29T01:50:44;10.10;;;9.10;;
18973;SDS011;9621;48.690;9.466;2022-07-29T01:53:15;10.00;;;9.00;;
18973;SDS011;9621;48.690;9.466;2022-07-29T01:55:57;9.70;;;8.63;;
18973;SDS011;9621;48.690;9.466;2022-07-29T01:58:26;10.35;;;9.25;;
18973;SDS011;9621;48.690;9.466;2022-07-29T02:00:56;11.95;;;9.10;;
18973;SDS011;9621;48.690;9.466;2022-07-29T02:03:24;9.35;;;8.38;;
18973;SDS011;9621;48.690;9.466;2022-07-29T02:05:53;10.65;;;9.13;;
18973;SDS011;9621;48.690;9.466;2022-07-29T02:08:22;10.07;;;8.35;;
18973;SDS011;9621;48.690;9.466;2022-07-29T02:10:51;10.05;;;9.05;;
18973;SDS011;9621;48.690;9.466;2022-07-29T02:13:21;9.75;;;8.80;;
18973;SDS011;9621;48.690;9.466;2022-07-29T02:15:49;9.88;;;8.60;;
18973;SDS011;9621;48.690;9.466;2022-07-29T02:18:20;10.05;;;9.07;;
18973;SDS011;9621;48.690;9.466;2022-07-29T02:20:49;11.73;;;8.60;;
18973;SDS011;9621;48.690;9.466;2022-07-29T02:23:19;9.25;;;8.32;;
18973;SDS011;9621;48.690;9.466;2022-07-29T02:25:48;9.90;;;8.90;;
18973;SDS011;9621;48.690;9.466;2022-07-29T02:28:17;12.50;;;9.00;;
18973;SDS011;9621;48.690;9.466;2022-07-29T02:30:46;11.43;;;8.60;;
18973;SDS011;9621;48.690;9.466;2022-07-29T02:33:14;10.20;;;9.20;;
18973;SDS011;9621;48.690;9.466;2022-07-29T02:35:45;9.57;;;8.57;;
18973;SDS011;9621;48.690;9.466;2022-07-29T02:38:14;11.77;;;9.05;;
18973;SDS011;9621;48.690;9.466;2022-07-29T02:41:01;13.15;;;9.48;;
18973;SDS011;9621;48.690;9.466;2022-07-29T02:43:31;11.43;;;9.13;;
18973;SDS011;9621;48.690;9.466;2022-07-29T02:46:02;10.55;;;8.35;;
18973;SDS011;9621;48.690;9.466;2022-07-29T02:48:32;11.25;;;9.10;;
18973;SDS011;9621;48.690;9.466;2022-07-29T02:51:06;13.32;;;8.65;;
18973;SDS011;9621;48.690;9.466;2022-07-29T02:53:38;10.35;;;9.02;;
18973;SDS011;9621;48.690;9.466;2022-07-29T02:56:08;9.75;;;8.75;;
18973;SDS011;9621;48.690;9.466;2022-07-29T02:58:40;9.60;;;8.68;;
18973;SDS011;9621;48.690;9.466;2022-07-29T03:01:11;12.10;;;9.02;;
18973;SDS011;9621;48.690;9.466;2022-07-29T03:03:42;10.43;;;9.18;;
18973;SDS011;9621;48.690;9.466;2022-07-29T03:06:13;11.13;;;8.98;;
18973;SDS011;9621;48.690;9.466;2022-07-29T03:08:41;9.38;;;8.45;;
18973;SDS011;9621;48.690;9.466;2022-07-29T03:11:10;8.75;;;7.40;;
18973;SDS011;9621;48.690;9.466;2022-07-29T03:13:38;10.40;;;8.35;;
18973;SDS011;9621;48.690;9.466;2022-07-29T03:16:06;17.70;;;8.15;;
18973;SDS011;9621;48.690;9.466;2022-07-29T03:18:34;9.52;;;8.52;;
18973;SDS011;9621;48.690;9.466;2022-07-29T03:21:02;12.10;;;8.05;;
18973;SDS011;9621;48.690;9.466;2022-07-29T03:23:31;14.15;;;9.30;;
18973;SDS011;9621;48.690;9.466;2022-07-29T03:25:58;9.88;;;8.07;;
18973;SDS011;9621;48.690;9.466;2022-07-29T03:28:25;11.25;;;8.10;;
18973;SDS011;9621;48.690;9.466;2022-07-29T03:30:53;10.02;;;8.02;;
18973;SDS011;9621;48.690;9.466;2022-07-29T03:33:20;9.15;;;8.07;;
18973;SDS011;9621;48.690;9.466;2022-07-29T03:35:47;8.70;;;7.80;;
18973;SDS011;9621;48.690;9.466;2022-07-29T03:38:14;9.68;;;8.77;;
18973;SDS011;9621;48.690;9.466;2022-07-29T03:40:44;9.45;;;8.00;;
18973;SDS011;9621;48.690;9.466;2022-07-29T03:43:16;13.18;;;8.98;;
18973;SDS011;9621;48.690;9.466;2022-07-29T03:45:45;21.95;;;8.52;;
18973;SDS011;9621;48.690;9.466;2022-07-29T03:48:16;32.47;;;8.95;;
18973;SDS011;9621;48.690;9.466;2022-07-29T03:50:46;34.13;;;9.70;;
18973;SDS011;9621;48.690;9.466;2022-07-29T03:53:14;54.17;;;10.60;;
18973;SDS011;9621;48.690;9.466;2022-07-29T03:55:45;61.22;;;10.80;;
18973;SDS011;9621;48.690;9.466;2022-07-29T03:58:14;38.47;;;9.77;;
18973;SDS011;9621;48.690;9.466;2022-07-29T04:00:43;50.40;;;9.63;;
18973;SDS011;9621;48.690;9.466;2022-07-29T04:03:10;30.10;;;9.30;;
18973;SDS011;9621;48.690;9.466;2022-07-29T04:05:38;12.68;;;9.57;;
18973;SDS011;9621;48.690;9.466;2022-07-29T04:08:05;19.48;;;9.25;;
18973;SDS011;9621;48.690;9.466;2022-07-29T04:10:32;20.42;;;9.10;;
18973;SDS011;9621;48.690;9.466;2022-07-29T04:13:00;11.30;;;9.15;;
18973;SDS011;9621;48.690;9.466;2022-07-29T04:15:27;22.73;;;8.63;;
18973;SDS011;9621;48.690;9.466;2022-07-29T04:17:55;22.85;;;9.23;;
18973;SDS011;9621;48.690;9.466;2022-07-29T04:20:22;24.17;;;8.80;;
18973;SDS011;9621;48.690;9.466;2022-07-29T04:22:48;21.27;;;8.13;;
18973;SDS011;9621;48.690;9.466;2022-07-29T04:25:16;33.15;;;8.18;;
18973;SDS011;9621;48.690;9.466;2022-07-29T04:27:43;18.42;;;7.32;;
18973;SDS011;9621;48.690;9.466;2022-07-29T04:30:25;9.82;;;7.68;;
18973;SDS011;9621;48.690;9.466;2022-07-29T04:32:52;14.25;;;7.10;;
18973;SDS011;9621;48.690;9.466;2022-07-29T04:35:19;20.77;;;8.13;;
18973;SDS011;9621;48.690;9.466;2022-07-29T04:37:46;99.95;;;9.43;;
18973;SDS011;9621;48.690;9.466;2022-07-29T04:40:13;14.27;;;7.10;;
18973;SDS011;9621;48.690;9.466;2022-07-29T04:42:40;16.00;;;6.82;;
18973;SDS011;9621;48.690;9.466;2022-07-29T04:45:08;7.63;;;6.93;;
18973;SDS011;9621;48.690;9.466;2022-07-29T04:47:36;10.40;;;6.57;;
18973;SDS011;9621;48.690;9.466;2022-07-29T04:50:04;9.43;;;7.00;;
18973;SDS011;9621;48.690;9.466;2022-07-29T04:52:32;8.65;;;6.40;;
18973;SDS011;9621;48.690;9.466;2022-07-29T04:54:59;7.60;;;6.63;;
18973;SDS011;9621;48.690;9.466;2022-07-29T04:57:26;6.28;;;5.75;;
18973;SDS011;9621;48.690;9.466;2022-07-29T04:59:53;6.32;;;5.32;;
18973;SDS011;9621;48.690;9.466;2022-07-29T05:02:20;6.72;;;5.50;;
18973;SDS011;9621;48.690;9.466;2022-07-29T05:04:49;9.35;;;5.43;;
18973;SDS011;9621;48.690;9.466;2022-07-29T05:07:16;6.57;;;5.97;;
18973;SDS011;9621;48.690;9.466;2022-07-29T05:09:43;8.85;;;5.10;;
18973;SDS011;9621;48.690;9.466;2022-07-29T05:12:10;6.22;;;4.88;;
18973;SDS011;9621;48.690;9.466;2022-07-29T05:14:37;5.15;;;4.65;;
18973;SDS011;9621;48.690;9.466;2022-07-29T05:17:05;8.63;;;5.05;;
18973;SDS011;9621;48.690;9.466;2022-07-29T05:19:32;5.60;;;5.10;;
18973;SDS011;9621;48.690;9.466;2022-07-29T05:22:00;5.05;;;4.55;;
18973;SDS011;9621;48.690;9.466;2022-07-29T05:24:27;6.15;;;5.25;;
18973;SDS011;9621;48.690;9.466;2022-07-29T05:26:54;5.47;;;4.97;;
18973;SDS011;9621;48.690;9.466;2022-07-29T05:29:21;6.38;;;5.38;;
18973;SDS011;9621;48.690;9.466;2022-07-29T05:31:48;5.45;;;4.95;;
18973;SDS011;9621;48.690;9.466;2022-07-29T05:34:16;5.32;;;4.82;;
18973;SDS011;9621;48.690;9.466;2022-07-29T05:36:44;5.90;;;5.30;;
18973;SDS011;9621;48.690;9.466;2022-07-29T05:39:12;5.63;;;5.13;;
18973;SDS011;9621;48.690;9.466;2022-07-29T05:41:40;6.28;;;4.93;;
18973;SDS011;9621;48.690;9.466;2022-07-29T05:44:07;6.38;;;5.63;;
18973;SDS011;9621;48.690;9.466;2022-07-29T05:46:34;8.65;;;5.93;;
18973;SDS011;9621;48.690;9.466;2022-07-29T05:49:01;7.90;;;5.43;;
18973;SDS011;9621;48.690;9.466;2022-07-29T05:51:28;11.48;;;6.20;;
18973;SDS011;9621;48.690;9.466;2022-07-29T05:53:56;6.88;;;6.10;;
18973;SDS011;9621;48.690;9.466;2022-07-29T05:56:24;8.65;;;6.75;;
18973;SDS011;9621;48.690;9.466;2022-07-29T05:58:51;8.80;;;6.63;;
18973;SDS011;9621;48.690;9.466;2022-07-29T06:01:19;7.25;;;5.97;;
18973;SDS011;9621;48.690;9.466;2022-07-29T06:03:46;6.90;;;5.55;;
18973;SDS011;9621;48.690;9.466;2022-07-29T06:06:13;8.90;;;5.88;;
18973;SDS011;9621;48.690;9.466;2022-07-29T06:08:40;7.22;;;5.65;;
18973;SDS011;9621;48.690;9.466;2022-07-29T06:11:07;9.52;;;5.97;;
18973;SDS011;9621;48.690;9.466;2022-07-29T06:13:36;5.68;;;5.13;;
18973;SDS011;9621;48.690;9.466;2022-07-29T06:16:03;6.10;;;5.05;;
18973;SDS011;9621;48.690;9.466;2022-07-29T06:18:30;5.32;;;4.70;;
18973;SDS011;9621;48.690;9.466;2022-07-29T06:20:57;5.38;;;4.50;;
18973;SDS011;9621;48.690;9.466;2022-07-29T06:23:24;5.18;;;4.63;;
18973;SDS011;9621;48.690;9.466;2022-07-29T06:25:51;7.10;;;4.57;;
18973;SDS011;9621;48.690;9.466;2022-07-29T06:28:18;5.05;;;4.43;;
18973;SDS011;9621;48.690;9.466;2022-07-29T06:30:47;5.43;;;4.85;;
18973;SDS011;9621;48.690;9.466;2022-07-29T06:33:17;7.47;;;4.68;;
18973;SDS011;9621;48.690;9.466;2022-07-29T06:35:44;7.18;;;4.57;;
18973;SDS011;9621;48.690;9.466;2022-07-29T06:38:12;5.40;;;4.63;;
18973;SDS011;9621;48.690;9.466;2022-07-29T06:40:40;5.18;;;4.50;;
18973;SDS011;9621;48.690;9.466;2022-07-29T06:43:27;7.65;;;4.65;;
18973;SDS011;9621;48.690;9.466;2022-07-29T06:45:59;6.68;;;4.47;;
18973;SDS011;9621;48.690;9.466;2022-07-29T06:48:26;6.20;;;4.55;;
18973;SDS011;9621;48.690;9.466;2022-07-29T06:50:54;6.68;;;4.82;;
18973;SDS011;9621;48.690;9.466;2022-07-29T06:53:21;6.45;;;4.57;;
18973;SDS011;9621;48.690;9.466;2022-07-29T06:55:48;5.13;;;3.22;;
18973;SDS011;9621;48.690;9.466;2022-07-29T06:58:15;4.40;;;3.60;;
18973;SDS011;9621;48.690;9.466;2022-07-29T07:00:45;4.93;;;3.40;;
18973;SDS011;9621;48.690;9.466;2022-07-29T07:03:13;5.43;;;3.65;;
18973;SDS011;9621;48.690;9.466;2022-07-29T07:05:41;6.70;;;3.35;;
18973;SDS011;9621;48.690;9.466;2022-07-29T07:08:09;3.97;;;3.03;;
18973;SDS011;9621;48.690;9.466;2022-07-29T07:10:36;3.85;;;3.45;;
18973;SDS011;9621;48.690;9.466;2022-07-29T07:13:04;4.10;;;3.15;;
18973;SDS011;9621;48.690;9.466;2022-07-29T07:15:31;4.45;;;3.00;;
18973;SDS011;9621;48.690;9.466;2022-07-29T07:17:58;5.43;;;3.00;;
18973;SDS011;9621;48.690;9.466;2022-07-29T07:20:27;3.60;;;3.20;;
18973;SDS011;9621;48.690;9.466;2022-07-29T07:22:54;4.68;;;3.03;;
18973;SDS011;9621;48.690;9.466;2022-07-29T07:25:21;4.60;;;3.15;;
18973;SDS011;9621;48.690;9.466;2022-07-29T07:27:48;3.97;;;3.00;;
18973;SDS011;9621;48.690;9.466;2022-07-29T07:30:15;5.38;;;2.90;;
18973;SDS011;9621;48.690;9.466;2022-07-29T07:32:43;5.63;;;2.80;;
18973;SDS011;9621;48.690;9.466;2022-07-29T07:35:10;6.28;;;3.10;;
18973;SDS011;9621;48.690;9.466;2022-07-29T07:37:38;4.13;;;2.80;;
18973;SDS011;9621;48.690;9.466;2022-07-29T07:40:07;5.47;;;2.40;;
18973;SDS011;9621;48.690;9.466;2022-07-29T07:42:36;2.65;;;2.30;;
18973;SDS011;9621;48.690;9.466;2022-07-29T07:45:03;5.35;;;2.53;;
18973;SDS011;9621;48.690;9.466;2022-07-29T07:47:31;4.38;;;2.67;;
18973;SDS011;9621;48.690;9.466;2022-07-29T07:49:58;3.97;;;2.67;;
18973;SDS011;9621;48.690;9.466;2022-07-29T07:52:26;3.88;;;2.72;;
18973;SDS011;9621;48.690;9.466;2022-07-29T07:54:54;3.13;;;2.45;;
18973;SDS011;9621;48.690;9.466;2022-07-29T07:57:21;2.63;;;2.38;;
18973;SDS011;9621;48.690;9.466;2022-07-29T07:59:48;4.25;;;2.72;;
18973;SDS011;9621;48.690;9.466;2022-07-29T08:02:15;4.03;;;2.63;;
18973;SDS011;9621;48.690;9.466;2022-07-29T08:04:42;3.42;;;2.67;;
18973;SDS011;9621;48.690;9.466;2022-07-29T08:07:09;4.22;;;2.60;;
18973;SDS011;9621;48.690;9.466;2022-07-29T08:09:36;4.68;;;2.72;;
18973;SDS011;9621;48.690;9.466;2022-07-29T08:12:04;4.72;;;2.88;;
18973;SDS011;9621;48.690;9.466;2022-07-29T08:14:32;3.42;;;2.47;;
18973;SDS011;9621;48.690;9.466;2022-07-29T08:16:59;4.05;;;2.50;;
18973;SDS011;9621;48.690;9.466;2022-07-29T08:19:26;2.60;;;2.40;;
18973;SDS011;9621;48.690;9.466;2022-07-29T08:21:53;5.95;;;2.13;;
18973;SDS011;9621;48.690;9.466;2022-07-29T08:24:20;3.70;;;2.65;;
18973;SDS011;9621;48.690;9.466;2022-07-29T08:27:06;4.53;;;2.30;;
18973;SDS011;9621;48.690;9.466;2022-07-29T08:29:34;7.45;;;2.53;;
18973;SDS011;9621;48.690;9.466;2022-07-29T08:32:01;5.47;;;2.40;;
18973;SDS011;9621;48.690;9.466;2022-07-29T08:34:28;2.30;;;2.10;;
18973;SDS011;9621;48.690;9.466;2022-07-29T08:36:55;5.13;;;2.40;;
18973;SDS011;9621;48.690;9.466;2022-07-29T08:39:23;4.07;;;2.85;;
18973;SDS011;9621;48.690;9.466;2022-07-29T08:41:51;4.18;;;2.78;;
18973;SDS011;9621;48.690;9.466;2022-07-29T08:44:21;4.57;;;2.58;;
18973;SDS011;9621;48.690;9.466;2022-07-29T08:46:48;2.92;;;2.35;;
18973;SDS011;9621;48.690;9.466;2022-07-29T08:49:15;3.85;;;2.90;;
18973;SDS011;9621;48.690;9.466;2022-07-29T08:51:42;2.95;;;2.63;;
18973;SDS011;9621;48.690;9.466;2022-07-29T08:54:10;2.90;;;2.15;;
18973;SDS011;9621;48.690;9.466;2022-07-29T08:56:42;2.92;;;2.22;;
18973;SDS011;9621;48.690;9.466;2022-07-29T08:59:11;3.38;;;2.55;;
18973;SDS011;9621;48.690;9.466;2022-07-29T09:01:41;3.97;;;2.30;;
18973;SDS011;9621;48.690;9.466;2022-07-29T09:04:11;2.75;;;2.33;;
18973;SDS011;9621;48.690;9.466;2022-07-29T09:06:40;2.92;;;2.63;;
18973;SDS011;9621;48.690;9.466;2022-07-29T09:09:10;3.88;;;2.22;;
18973;SDS011;9621;48.690;9.466;2022-07-29T09:11:38;3.60;;;2.50;;
18973;SDS011;9621;48.690;9.466;2022-07-29T09:14:06;2.67;;;2.28;;
18973;SDS011;9621;48.690;9.466;2022-07-29T09:17:00;2.92;;;2.20;;
18973;SDS011;9621;48.690;9.466;2022-07-29T09:19:28;3.08;;;2.35;;
18973;SDS011;9621;48.690;9.466;2022-07-29T09:21:56;2.85;;;2.47;;
18973;SDS011;9621;48.690;9.466;2022-07-29T09:24:24;4.03;;;2.38;;
18973;SDS011;9621;48.690;9.466;2022-07-29T09:26:52;3.30;;;2.50;;
18973;SDS011;9621;48.690;9.466;2022-07-29T09:29:20;4.18;;;2.60;;
18973;SDS011;9621;48.690;9.466;2022-07-29T09:31:51;3.45;;;2.45;;
18973;SDS011;9621;48.690;9.466;2022-07-29T09:34:22;2.85;;;2.53;;
18973;SDS011;9621;48.690;9.466;2022-07-29T09:36:56;3.38;;;2.42;;
18973;SDS011;9621;48.690;9.466;2022-07-29T09:39:27;3.42;;;2.47;;
18973;SDS011;9621;48.690;9.466;2022-07-29T09:41:55;5.13;;;2.67;;
18973;SDS011;9621;48.690;9.466;2022-07-29T09:44:24;2.65;;;2.45;;
18973;SDS011;9621;48.690;9.466;2022-07-29T09:46:58;4.57;;;2.58;;
18973;SDS011;9621;48.690;9.466;2022-07-29T09:49:31;8.18;;;2.90;;
18973;SDS011;9621;48.690;9.466;2022-07-29T09:51:59;4.20;;;2.78;;
18973;SDS011;9621;48.690;9.466;2022-07-29T09:54:29;3.70;;;2.72;;
18973;SDS011;9621;48.690;9.466;2022-07-29T09:57:01;3.63;;;2.40;;
18973;SDS011;9621;48.690;9.466;2022-07-29T09:59:29;6.93;;;2.80;;
18973;SDS011;9621;48.690;9.466;2022-07-29T10:01:58;3.40;;;2.50;;
18973;SDS011;9621;48.690;9.466;2022-07-29T10:04:36;2.85;;;2.53;;
18973;SDS011;9621;48.690;9.466;2022-07-29T10:07:04;5.22;;;2.63;;
18973;SDS011;9621;48.690;9.466;2022-07-29T10:09:31;5.97;;;2.67;;
18973;SDS011;9621;48.690;9.466;2022-07-29T10:12:08;3.70;;;2.72;;
18973;SDS011;9621;48.690;9.466;2022-07-29T10:14:40;5.35;;;2.33;;
18973;SDS011;9621;48.690;9.466;2022-07-29T10:17:10;5.65;;;2.97;;
18973;SDS011;9621;48.690;9.466;2022-07-29T10:19:37;4.35;;;2.80;;
18973;SDS011;9621;48.690;9.466;2022-07-29T10:22:07;6.80;;;2.90;;
18973;SDS011;9621;48.690;9.466;2022-07-29T10:24:36;3.20;;;2.55;;
18973;SDS011;9621;48.690;9.466;2022-07-29T10:27:05;8.05;;;2.85;;
18973;SDS011;9621;48.690;9.466;2022-07-29T10:29:33;7.97;;;3.03;;
18973;SDS011;9621;48.690;9.466;2022-07-29T10:32:23;5.20;;;2.72;;
18973;SDS011;9621;48.690;9.466;2022-07-29T10:35:12;4.03;;;2.88;;
18973;SDS011;9621;48.690;9.466;2022-07-29T10:37:52;3.67;;;2.70;;
18973;SDS011;9621;48.690;9.466;2022-07-29T10:40:36;3.15;;;2.47;;
18973;SDS011;9621;48.690;9.466;2022-07-29T10:43:35;4.43;;;2.70;;
18973;SDS011;9621;48.690;9.466;2022-07-29T10:46:04;5.28;;;2.70;;
18973;SDS011;9621;48.690;9.466;2022-07-29T10:48:33;3.78;;;2.60;;
18973;SDS011;9621;48.690;9.466;2022-07-29T10:51:01;3.95;;;2.55;;
18973;SDS011;9621;48.690;9.466;2022-07-29T10:53:46;8.30;;;2.85;;
18973;SDS011;9621;48.690;9.466;2022-07-29T10:56:24;3.90;;;2.97;;
18973;SDS011;9621;48.690;9.466;2022-07-29T11:01:56;3.25;;;2.50;;
18973;SDS011;9621;48.690;9.466;2022-07-29T11:07:30;4.28;;;2.90;;
18973;SDS011;9621;48.690;9.466;2022-07-29T11:12:49;2.80;;;2.50;;
18973;SDS011;9621;48.690;9.466;2022-07-29T11:15:17;5.07;;;2.75;;
18973;SDS011;9621;48.690;9.466;2022-07-29T11:18:05;5.28;;;3.05;;
18973;SDS011;9621;48.690;9.466;2022-07-29T11:20:35;5.40;;;3.20;;
18973;SDS011;9621;48.690;9.466;2022-07-29T11:23:20;6.60;;;3.00;;
18973;SDS011;9621;48.690;9.466;2022-07-29T11:28:57;5.03;;;3.60;;
18973;SDS011;9621;48.690;9.466;2022-07-29T11:31:32;4.50;;;2.78;;
18973;SDS011;9621;48.690;9.466;2022-07-29T11:34:17;6.22;;;3.08;;
18973;SDS011;9621;48.690;9.466;2022-07-29T11:39:45;4.20;;;2.90;;
18973;SDS011;9621;48.690;9.466;2022-07-29T11:45:09;3.30;;;2.90;;
18973;SDS011;9621;48.690;9.466;2022-07-29T11:47:39;2.70;;;2.50;;
18973;SDS011;9621;48.690;9.466;2022-07-29T11:50:08;5.30;;;2.00;;
18973;SDS011;9621;48.690;9.466;2022-07-29T11:52:41;4.43;;;1.50;;
18973;SDS011;9621;48.690;9.466;2022-07-29T11:55:10;3.17;;;1.40;;
18973;SDS011;9621;48.690;9.466;2022-07-29T11:57:45;4.07;;;1.60;;
18973;SDS011;9621;48.690;9.466;2022-07-29T12:00:20;3.22;;;1.80;;
18973;SDS011;9621;48.690;9.466;2022-07-29T12:02:49;4.53;;;2.20;;
18973;SDS011;9621;48.690;9.466;2022-07-29T12:05:16;2.53;;;1.77;;
18973;SDS011;9621;48.690;9.466;2022-07-29T12:07:46;1.90;;;1.52;;
18973;SDS011;9621;48.690;9.466;2022-07-29T12:10:13;2.20;;;1.58;;
18973;SDS011;9621;48.690;9.466;2022-07-29T12:12:40;2.33;;;1.85;;
18973;SDS011;9621;48.690;9.466;2022-07-29T12:15:14;7.35;;;1.70;;
18973;SDS011;9621;48.690;9.466;2022-07-29T12:17:45;2.80;;;1.65;;
18973;SDS011;9621;48.690;9.466;2022-07-29T12:20:12;2.40;;;1.70;;
18973;SDS011;9621;48.690;9.466;2022-07-29T12:22:42;3.22;;;1.70;;
18973;SDS011;9621;48.690;9.466;2022-07-29T12:25:12;2.50;;;1.50;;
18973;SDS011;9621;48.690;9.466;2022-07-29T12:27:41;3.20;;;2.05;;
18973;SDS011;9621;48.690;9.466;2022-07-29T12:30:10;3.50;;;2.00;;
18973;SDS011;9621;48.690;9.466;2022-07-29T12:32:39;3.83;;;2.00;;
18973;SDS011;9621;48.690;9.466;2022-07-29T12:35:10;3.83;;;2.40;;
18973;SDS011;9621;48.690;9.466;2022-07-29T12:37:40;3.45;;;2.28;;
18973;SDS011;9621;48.690;9.466;2022-07-29T12:40:09;3.00;;;1.88;;
18973;SDS011;9621;48.690;9.466;2022-07-29T12:42:39;3.38;;;1.80;;
18973;SDS011;9621;48.690;9.466;2022-07-29T12:45:07;2.92;;;1.50;;
18973;SDS011;9621;48.690;9.466;2022-07-29T12:50:19;1.60;;;1.33;;
18973;SDS011;9621;48.690;9.466;2022-07-29T12:52:46;3.00;;;1.75;;
18973;SDS011;9621;48.690;9.466;2022-07-29T12:55:14;6.43;;;1.52;;
18973;SDS011;9621;48.690;9.466;2022-07-29T12:57:45;2.05;;;1.67;;
18973;SDS011;9621;48.690;9.466;2022-07-29T13:00:13;4.60;;;2.00;;
18973;SDS011;9621;48.690;9.466;2022-07-29T13:02:41;4.90;;;1.85;;
18973;SDS011;9621;48.690;9.466;2022-07-29T13:05:09;3.33;;;1.73;;
18973;SDS011;9621;48.690;9.466;2022-07-29T13:07:37;6.60;;;2.15;;
18973;SDS011;9621;48.690;9.466;2022-07-29T13:10:12;3.22;;;1.90;;
18973;SDS011;9621;48.690;9.466;2022-07-29T13:15:28;2.70;;;1.80;;
18973;SDS011;9621;48.690;9.466;2022-07-29T13:17:55;3.25;;;2.00;;
18973;SDS011;9621;48.690;9.466;2022-07-29T13:20:23;5.38;;;2.13;;
18973;SDS011;9621;48.690;9.466;2022-07-29T13:22:52;3.17;;;1.92;;
18973;SDS011;9621;48.690;9.466;2022-07-29T13:25:30;5.03;;;2.20;;
18973;SDS011;9621;48.690;9.466;2022-07-29T13:27:59;2.95;;;2.25;;
18973;SDS011;9621;48.690;9.466;2022-07-29T13:30:26;2.83;;;2.10;;
18973;SDS011;9621;48.690;9.466;2022-07-29T13:32:54;2.63;;;2.20;;
18973;SDS011;9621;48.690;9.466;2022-07-29T13:35:21;2.55;;;2.35;;
18973;SDS011;9621;48.690;9.466;2022-07-29T13:37:48;4.60;;;2.45;;
18973;SDS011;9621;48.690;9.466;2022-07-29T13:40:15;4.38;;;2.70;;
18973;SDS011;9621;48.690;9.466;2022-07-29T13:42:43;3.47;;;2.35;;
18973;SDS011;9621;48.690;9.466;2022-07-29T13:45:10;3.08;;;2.08;;
18973;SDS011;9621;48.690;9.466;2022-07-29T13:47:37;3.42;;;2.30;;
18973;SDS011;9621;48.690;9.466;2022-07-29T13:50:05;6.50;;;2.42;;
18973;SDS011;9621;48.690;9.466;2022-07-29T13:52:35;5.72;;;2.67;;
18973;SDS011;9621;48.690;9.466;2022-07-29T13:55:02;2.58;;;2.38;;
18973;SDS011;9621;48.690;9.466;2022-07-29T13:57:30;3.15;;;2.60;;
18973;SDS011;9621;48.690;9.466;2022-07-29T13:59:59;3.55;;;2.40;;
18973;SDS011;9621;48.690;9.466;2022-07-29T14:02:26;3.97;;;2.53;;
18973;SDS011;9621;48.690;9.466;2022-07-29T14:04:53;2.38;;;2.17;;
18973;SDS011;9621;48.690;9.466;2022-07-29T14:07:20;4.93;;;2.72;;
18973;SDS011;9621;48.690;9.466;2022-07-29T14:09:48;3.58;;;2.83;;
18973;SDS011;9621;48.690;9.466;2022-07-29T14:12:15;5.22;;;2.85;;
18973;SDS011;9621;48.690;9.466;2022-07-29T14:14:42;3.28;;;2.47;;
18973;SDS011;9621;48.690;9.466;2022-07-29T14:17:11;4.57;;;2.88;;
18973;SDS011;9621;48.690;9.466;2022-07-29T14:19:38;4.68;;;2.88;;
18973;SDS011;9621;48.690;9.466;2022-07-29T14:22:05;3.42;;;2.65;;
18973;SDS011;9621;48.690;9.466;2022-07-29T14:24:33;4.47;;;2.88;;
18973;SDS011;9621;48.690;9.466;2022-07-29T14:27:01;4.35;;;3.08;;
18973;SDS011;9621;48.690;9.466;2022-07-29T14:29:28;4.95;;;2.83;;
18973;SDS011;9621;48.690;9.466;2022-07-29T14:31:56;7.40;;;2.72;;
18973;SDS011;9621;48.690;9.466;2022-07-29T14:34:24;5.68;;;3.13;;
18973;SDS011;9621;48.690;9.466;2022-07-29T14:36:51;3.55;;;2.45;;
18973;SDS011;9621;48.690;9.466;2022-07-29T14:39:20;4.95;;;3.00;;
18973;SDS011;9621;48.690;9.466;2022-07-29T14:41:48;3.88;;;2.95;;
18973;SDS011;9621;48.690;9.466;2022-07-29T14:44:16;3.67;;;3.10;;
18973;SDS011;9621;48.690;9.466;2022-07-29T14:46:43;5.88;;;3.47;;
18973;SDS011;9621;48.690;9.466;2022-07-29T14:49:09;5.38;;;3.65;;
18973;SDS011;9621;48.690;9.466;2022-07-29T14:51:38;5.85;;;3.40;;
18973;SDS011;9621;48.690;9.466;2022-07-29T14:54:05;6.90;;;3.65;;
18973;SDS011;9621;48.690;9.466;2022-07-29T14:56:32;5.45;;;3.28;;
18973;SDS011;9621;48.690;9.466;2022-07-29T14:58:59;3.50;;;3.08;;
18973;SDS011;9621;48.690;9.466;2022-07-29T15:01:26;6.95;;;4.30;;
18973;SDS011;9621;48.690;9.466;2022-07-29T15:03:54;3.88;;;3.13;;
18973;SDS011;9621;48.690;9.466;2022-07-29T15:06:21;4.28;;;3.28;;
18973;SDS011;9621;48.690;9.466;2022-07-29T15:08:49;4.53;;;3.13;;
18973;SDS011;9621;48.690;9.466;2022-07-29T15:11:16;3.53;;;3.08;;
18973;SDS011;9621;48.690;9.466;2022-07-29T15:13:43;4.05;;;2.90;;
18973;SDS011;9621;48.690;9.466;2022-07-29T15:16:10;5.63;;;2.67;;
18973;SDS011;9621;48.690;9.466;2022-07-29T15:18:37;3.70;;;3.10;;
18973;SDS011;9621;48.690;9.466;2022-07-29T15:21:04;4.22;;;2.90;;
18973;SDS011;9621;48.690;9.466;2022-07-29T15:23:31;4.85;;;3.05;;
18973;SDS011;9621;48.690;9.466;2022-07-29T15:26:03;4.53;;;3.05;;
18973;SDS011;9621;48.690;9.466;2022-07-29T15:28:30;5.57;;;3.03;;
18973;SDS011;9621;48.690;9.466;2022-07-29T15:30:57;3.67;;;3.20;;
18973;SDS011;9621;48.690;9.466;2022-07-29T15:33:24;5.10;;;3.47;;